Lee-On-Solent, United Kingdom

1:01 AM GMT on December 25, 2014 (GMT +0000)
Lee-on-the-Solent | Change Station
CLOSE
Current Station
Personal Weather Station
Location: Lee-on-the-Solent, ENGLAND
Elevation: 23 ft
Nearby Weather Stations

Elev 23 ft 50.80 °N, 1.19 °W | Updated 3 seconds ago

Mostly Cloudy
Mostly Cloudy
44.1 °F
Feels Like 40 °F
N
6.7
Wind Variable Wind from WNW
Gusts 9.8 mph

Today
High -- | Low -- °F
--% Chance of Precip.
Yesterday
High -- | Low -- °F
Precip. -- in
8:06 AM 4:03 PM
Waxing Crescent, 12% visible
Pressure 30.27 in
Visibility 6.2 miles
Clouds Mostly Cloudy 20000 ft
Windchill 40 °F
Dew Point 39 °F
Humidity 83%
Rainfall 0.00 in
Snow Depth Not available.
UV 0.0 out of 12
Pollen Not available.
Air Quality Not available.
Flu Activity Not available.
METAR EGVP 242350Z AUTO 24005KT 9999 // BKN200/// 04/01 Q1025

More Conditions Fewer Conditions

Pressure 30.27 in
Visibility 6.2 miles
Clouds Mostly Cloudy 20000 ft
Windchill 40 °F
Dew Point 39 °F
Humidity 83%
Rainfall 0.00 in
Snow Depth Not available.
UV 0.0 out of 12
Pollen Not available.
Air Quality Not available.
Flu Activity Not available.
METAR EGVP 242350Z AUTO 24005KT 9999 // BKN200/// 04/01 Q1025

More Conditions Fewer Conditions

10-Day Weather Forecast

Almanac

Astronomy

Dec. 25, 2014 Rise Set
Actual Time
Civil Twilight
Nautical Twilight
Astronomical Twilight
Moon
Length of Visible Light
Length of Day
Tomorrow will be .
, % of the Moon is Illuminated

Today's Extremes

Country Highs Country Lows

Community

WunderPhotos

Upload Photos

1,780,199 photos uploaded!

WunderBlogs® & News

Nearby

Air Quality

  Air Quality AQ Index Pollutant
Not available.

Snow Depth

Station Depth Elevation

Earthquake Activity

City Distance Mag. Time & Date
Minimum magnitude displayed is 2.5.

Coastal Water Temperatures

Place Temperature

Nearby Weather Stations